createdAt,value
2018-05-11T06:47:26.595Z,12.30
2018-05-11T06:49:30.090Z,11.70
2018-05-11T06:51:33.601Z,12.40
2018-05-11T06:53:37.072Z,12.50
2018-05-11T06:55:40.541Z,12.57
2018-05-11T06:57:44.837Z,14.07
2018-05-11T06:59:49.087Z,14.97
2018-05-11T07:01:52.711Z,14.60
2018-05-11T07:03:56.212Z,15.30
2018-05-11T07:06:00.564Z,15.27
2018-05-11T07:08:04.873Z,16.30
2018-05-11T07:10:08.394Z,18.90
2018-05-11T07:12:11.868Z,16.50
2018-05-11T07:14:15.371Z,18.00
2018-05-11T07:16:19.912Z,16.07
2018-05-11T07:18:23.689Z,18.43
2018-05-11T07:20:27.136Z,16.00
2018-05-11T07:22:30.825Z,16.60
2018-05-11T07:24:34.332Z,17.23
2018-05-11T07:26:37.891Z,16.93
2018-05-11T07:28:41.383Z,18.60
2018-05-11T07:30:44.874Z,17.20
2018-05-11T07:32:49.404Z,15.27
2018-05-11T07:34:53.620Z,17.10
2018-05-11T07:36:57.072Z,16.13
2018-05-11T07:39:00.586Z,16.90
2018-05-11T07:41:04.819Z,15.87
2018-05-11T07:43:09.093Z,18.03
2018-05-11T07:45:12.685Z,16.10
2018-05-11T07:47:16.148Z,16.63
2018-05-11T07:49:20.804Z,16.43
2018-05-11T07:51:24.257Z,16.73
2018-05-11T07:53:27.987Z,16.37
2018-05-11T07:55:31.613Z,16.17
2018-05-11T07:57:35.833Z,15.97
2018-05-11T07:59:40.107Z,18.30
2018-05-11T08:01:43.563Z,17.23
2018-05-11T08:03:47.033Z,17.50
2018-05-11T08:05:51.252Z,17.07
2018-05-11T08:07:55.472Z,17.63
2018-05-11T08:09:59.733Z,17.47
2018-05-11T08:12:03.304Z,15.80
2018-05-11T08:14:06.807Z,16.20
2018-05-11T08:16:10.307Z,13.73
2018-05-11T08:18:13.834Z,14.50
2018-05-11T08:20:17.420Z,15.07
2018-05-11T08:22:20.878Z,15.80
2018-05-11T08:24:24.365Z,14.20
2018-05-11T08:26:27.848Z,15.30
2018-05-11T08:28:32.088Z,15.10
2018-05-11T08:30:35.533Z,15.00
2018-05-11T08:32:39.755Z,15.40
2018-05-11T08:34:44.061Z,16.53
2018-05-11T08:36:47.500Z,15.43
2018-05-11T08:38:50.974Z,16.50
2018-05-11T08:40:56.174Z,17.17
2018-05-11T08:42:59.631Z,15.23
2018-05-11T08:45:03.111Z,15.30
2018-05-11T08:47:06.562Z,14.87
2018-05-11T08:49:10.216Z,14.97
2018-05-11T08:51:14.284Z,14.47
2018-05-11T08:53:18.218Z,13.83
2018-05-11T08:55:22.010Z,14.77
2018-05-11T08:57:26.332Z,14.47
2018-05-11T08:59:29.837Z,15.93
2018-05-11T09:01:33.531Z,14.67
2018-05-11T09:03:37.476Z,15.10
2018-05-11T09:05:41.804Z,13.87
2018-05-11T09:07:45.304Z,14.43
2018-05-11T09:09:49.686Z,14.50
2018-05-11T09:11:53.947Z,13.77
2018-05-11T09:13:58.298Z,13.87
2018-05-11T09:16:03.842Z,14.47
2018-05-11T09:18:07.528Z,13.40
2018-05-11T09:20:11.036Z,14.50
2018-05-11T09:22:14.773Z,14.40
2018-05-11T09:24:19.041Z,13.77
2018-05-11T09:28:32.138Z,13.87
2018-05-11T09:30:36.614Z,12.20
2018-05-11T09:32:40.398Z,14.70
2018-05-11T09:34:44.178Z,13.77
2018-05-11T09:36:48.381Z,11.40
2018-05-11T09:38:52.053Z,12.53
2018-05-11T09:40:56.140Z,12.37
2018-05-11T09:42:59.599Z,12.70
2018-05-11T09:45:03.110Z,11.70
2018-05-11T09:47:06.824Z,12.03
2018-05-11T09:49:10.308Z,11.40
2018-05-11T09:51:13.769Z,11.20
2018-05-11T09:53:17.232Z,11.80
2018-05-11T09:55:20.726Z,11.40
2018-05-11T09:57:24.175Z,11.90
2018-05-11T09:59:27.668Z,11.90
2018-05-11T10:01:31.139Z,11.07
2018-05-11T10:03:35.343Z,10.83
2018-05-11T10:05:39.582Z,11.13
2018-05-11T10:07:43.064Z,11.17
2018-05-11T10:09:46.603Z,11.37
2018-05-11T10:11:50.092Z,12.10
2018-05-11T10:13:53.764Z,10.17
2018-05-11T10:15:57.977Z,11.63
2018-05-11T10:18:01.421Z,9.80
2018-05-11T10:20:04.893Z,8.97
2018-05-11T10:22:08.874Z,10.37
2018-05-11T10:24:12.366Z,10.90
2018-05-11T10:26:15.827Z,10.30
2018-05-11T10:28:20.053Z,10.63
2018-05-11T10:30:24.341Z,10.50
2018-05-11T10:32:27.819Z,9.97
2018-05-11T10:34:32.717Z,11.97
2018-05-11T10:36:36.138Z,10.13
2018-05-11T10:38:39.595Z,12.47
2018-05-11T10:40:43.089Z,11.57
2018-05-11T10:42:46.520Z,10.73
2018-05-11T10:44:50.008Z,11.77
2018-05-11T10:46:53.570Z,10.63
2018-05-11T10:48:57.012Z,10.87
2018-05-11T10:51:00.477Z,11.40
2018-05-11T10:53:04.685Z,11.33
2018-05-11T10:55:08.178Z,10.13
2018-05-11T10:57:11.631Z,11.80
2018-05-11T10:59:15.861Z,12.53
2018-05-11T11:01:19.334Z,11.77
2018-05-11T11:03:23.591Z,12.00
2018-05-11T11:05:27.091Z,11.90
2018-05-11T11:07:30.530Z,10.93
2018-05-11T11:09:34.053Z,11.17
2018-05-11T11:11:37.512Z,11.93
2018-05-11T11:13:41.103Z,12.53
2018-05-11T11:15:44.488Z,12.80
2018-05-11T11:17:47.952Z,12.90
2018-05-11T11:19:51.483Z,11.80
2018-05-11T11:21:54.952Z,12.63
2018-05-11T11:23:58.400Z,11.67
2018-05-11T11:26:06.903Z,11.10
2018-05-11T11:28:10.568Z,12.00
2018-05-11T11:30:14.075Z,12.53
2018-05-11T11:32:17.575Z,11.07
2018-05-11T11:34:21.899Z,12.10
2018-05-11T11:36:25.358Z,12.43
2018-05-11T11:38:28.801Z,11.33
2018-05-11T11:40:33.058Z,11.60
2018-05-11T11:42:37.067Z,10.70
2018-05-11T11:44:41.710Z,12.53
2018-05-11T11:46:45.157Z,12.33
2018-05-11T11:48:48.671Z,14.20
2018-05-11T11:50:52.185Z,11.90
2018-05-11T11:52:55.653Z,12.07
2018-05-11T11:54:59.128Z,12.80
2018-05-11T11:57:02.606Z,12.77
2018-05-11T11:59:06.847Z,11.20
2018-05-11T12:01:10.339Z,11.53
2018-05-11T12:03:13.788Z,10.87
2018-05-11T12:05:17.270Z,10.87
2018-05-11T12:07:20.721Z,9.80
2018-05-11T12:09:24.154Z,9.93
2018-05-11T12:11:27.661Z,11.70
2018-05-11T12:13:31.110Z,11.70
2018-05-11T12:15:34.602Z,12.70
2018-05-11T12:17:38.099Z,12.20
2018-05-11T12:19:41.579Z,10.90
2018-05-11T12:21:45.253Z,12.10
2018-05-11T12:23:49.465Z,12.30
2018-05-11T12:25:52.952Z,11.23
2018-05-11T12:27:56.392Z,11.40
2018-05-11T12:29:59.950Z,11.90
2018-05-11T12:32:04.158Z,11.73
2018-05-11T12:34:08.382Z,10.50
2018-05-11T12:36:12.638Z,10.77
2018-05-11T12:38:24.592Z,9.30
2018-05-11T12:40:28.843Z,10.50
2018-05-11T12:42:32.327Z,10.37
2018-05-11T12:44:35.780Z,10.30
2018-05-11T12:46:39.290Z,9.80
2018-05-11T12:48:42.779Z,10.53
2018-05-11T12:50:47.024Z,11.60
2018-05-11T12:52:51.325Z,11.40
2018-05-11T12:54:54.702Z,11.10
2018-05-11T12:56:58.186Z,11.23
2018-05-11T12:59:01.625Z,10.60
2018-05-11T13:01:05.108Z,11.40
2018-05-11T13:03:08.571Z,11.07
2018-05-11T13:05:12.806Z,9.60
2018-05-11T13:07:16.292Z,9.00
2018-05-11T13:09:19.808Z,9.33
2018-05-11T13:11:24.087Z,8.23
2018-05-11T13:13:28.301Z,8.67
2018-05-11T13:15:31.802Z,9.00
2018-05-11T13:17:35.257Z,9.47
2018-05-11T13:19:38.690Z,9.00
2018-05-11T13:21:43.001Z,9.43
2018-05-11T13:23:47.216Z,10.00
2018-05-11T13:25:50.726Z,9.30
2018-05-11T13:27:54.173Z,9.70
2018-05-11T13:29:57.605Z,9.53
2018-05-11T13:32:01.099Z,8.93
2018-05-11T13:34:04.565Z,8.30
2018-05-11T13:36:08.806Z,9.60
2018-05-11T13:38:13.267Z,9.80
2018-05-11T13:40:16.718Z,11.13
2018-05-11T13:42:20.216Z,11.17
2018-05-11T13:44:23.656Z,10.03
2018-05-11T13:46:27.144Z,10.17
2018-05-11T13:48:30.683Z,9.10
2018-05-11T13:50:34.133Z,9.20
2018-05-11T13:52:37.567Z,8.60
2018-05-11T13:54:40.989Z,9.00
2018-05-11T13:56:44.440Z,8.77
2018-05-11T13:58:47.874Z,10.90
2018-05-11T14:00:51.334Z,10.13
2018-05-11T14:02:54.772Z,11.07
2018-05-11T14:04:58.204Z,9.80
2018-05-11T14:07:01.700Z,11.60
2018-05-11T14:09:06.070Z,9.50
2018-05-11T14:11:09.532Z,9.87
2018-05-11T14:13:13.778Z,10.17
2018-05-11T14:15:17.215Z,10.77
2018-05-11T14:17:21.490Z,10.20
2018-05-11T14:19:24.932Z,11.03
2018-05-11T14:21:28.369Z,8.70
2018-05-11T14:23:31.823Z,10.30
2018-05-11T14:25:35.272Z,10.70
2018-05-11T14:27:38.758Z,9.57
2018-05-11T14:29:42.189Z,11.77
2018-05-11T14:31:45.648Z,12.20
2018-05-11T14:33:49.129Z,11.80
2018-05-11T14:35:55.401Z,11.63
2018-05-11T14:37:58.870Z,11.37
2018-05-11T14:40:02.334Z,10.40
2018-05-11T14:42:05.840Z,9.97
2018-05-11T14:44:09.348Z,10.10
2018-05-11T14:46:13.561Z,9.00
2018-05-11T14:48:17.799Z,10.00
2018-05-11T14:50:21.246Z,8.93
2018-05-11T14:52:25.483Z,9.83
2018-05-11T14:54:30.821Z,9.40
2018-05-11T14:56:35.033Z,10.03
2018-05-11T14:58:39.363Z,9.20
2018-05-11T15:00:42.749Z,9.83
2018-05-11T15:02:46.212Z,9.30
2018-05-11T15:04:49.640Z,9.13
2018-05-11T15:06:53.064Z,8.50
2018-05-11T15:08:56.541Z,10.20
2018-05-11T15:10:59.984Z,9.53
2018-05-11T15:13:03.480Z,7.53
2018-05-11T15:15:07.905Z,8.20
2018-05-11T15:17:11.413Z,8.17
2018-05-11T15:19:14.896Z,8.80
2018-05-11T15:21:18.327Z,9.60
2018-05-11T15:23:21.794Z,8.73
2018-05-11T15:25:26.007Z,8.27
2018-05-11T15:27:31.158Z,10.00
2018-05-11T15:29:35.110Z,10.90
2018-05-11T15:31:39.653Z,10.80
2018-05-11T15:33:43.871Z,9.50
2018-05-11T15:35:48.123Z,9.13
2018-05-11T15:37:51.590Z,9.97
2018-05-11T15:39:55.787Z,10.87
2018-05-11T15:41:59.258Z,9.40
2018-05-11T15:44:02.909Z,9.67
2018-05-11T15:46:06.517Z,10.70
2018-05-11T15:48:10.051Z,9.80
2018-05-11T15:50:13.497Z,10.60
2018-05-11T15:52:16.972Z,10.53
2018-05-11T15:54:20.512Z,10.90
2018-05-11T15:56:24.853Z,10.70
2018-05-11T15:58:28.384Z,10.50
2018-05-11T16:00:31.876Z,10.23
2018-05-11T16:02:35.421Z,10.67
2018-05-11T16:04:39.692Z,9.07
2018-05-11T16:06:43.185Z,8.90
2018-05-11T16:08:46.720Z,9.10
2018-05-11T16:10:50.160Z,9.30
2018-05-11T16:12:54.651Z,8.60
2018-05-11T16:14:58.050Z,7.60
2018-05-11T16:17:01.515Z,9.67
2018-05-11T16:19:05.032Z,8.53
2018-05-11T16:21:08.545Z,9.00
2018-05-11T16:23:12.789Z,10.60
2018-05-11T16:25:16.239Z,12.80
2018-05-11T16:27:19.682Z,12.07
2018-05-11T16:29:23.201Z,13.60
2018-05-11T16:31:29.194Z,13.40
2018-05-11T16:33:33.582Z,14.50
2018-05-11T16:35:37.879Z,13.43
2018-05-11T16:37:41.344Z,13.47
2018-05-11T16:39:44.899Z,14.57
2018-05-11T16:41:48.365Z,13.60
2018-05-11T16:43:51.851Z,15.57
2018-05-11T16:45:55.325Z,14.57
2018-05-11T16:47:58.820Z,13.60
2018-05-11T16:50:02.375Z,14.60
2018-05-11T16:52:05.825Z,12.50
2018-05-11T16:54:09.391Z,13.10
2018-05-11T16:56:13.597Z,12.47
2018-05-11T16:58:17.853Z,13.43
2018-05-11T17:00:21.307Z,12.17
2018-05-11T17:02:25.519Z,9.60
2018-05-11T17:04:29.027Z,10.37
2018-05-11T17:06:32.556Z,10.10
2018-05-11T17:08:36.052Z,9.17
2018-05-11T17:10:39.543Z,10.57
2018-05-11T17:12:43.024Z,10.93
2018-05-11T17:14:46.499Z,10.43
2018-05-11T17:16:50.020Z,10.50
2018-05-11T17:18:53.501Z,10.80
2018-05-11T17:20:57.000Z,10.23
2018-05-11T17:23:00.493Z,9.80
2018-05-11T17:25:03.982Z,9.87
2018-05-11T17:27:07.425Z,11.00
2018-05-11T17:29:11.136Z,10.77
2018-05-11T17:31:15.484Z,12.23
2018-05-11T17:33:19.750Z,11.70
2018-05-11T17:35:23.227Z,11.33
2018-05-11T17:37:26.697Z,11.90
2018-05-11T17:39:30.189Z,12.23
2018-05-11T17:41:33.644Z,12.60
2018-05-11T17:43:37.907Z,12.37
2018-05-11T17:45:43.443Z,13.87
2018-05-11T17:47:46.913Z,15.60
2018-05-11T17:49:50.429Z,15.80
2018-05-11T17:51:53.863Z,15.70
2018-05-11T17:53:57.361Z,16.07
2018-05-11T17:56:00.813Z,15.10
2018-05-11T17:58:04.262Z,15.90
2018-05-11T18:00:07.745Z,15.33
2018-05-11T18:02:12.022Z,14.90
2018-05-11T18:04:15.512Z,17.20
2018-05-11T18:06:18.993Z,16.20
2018-05-11T18:08:22.445Z,17.10
2018-05-11T18:10:25.938Z,16.07
2018-05-11T18:12:29.436Z,15.57
2018-05-11T18:14:32.910Z,14.90
2018-05-11T18:16:36.383Z,14.33
2018-05-11T18:18:39.900Z,16.17
2018-05-11T18:20:43.407Z,14.77
2018-05-11T18:22:46.844Z,13.90
2018-05-11T18:24:50.324Z,14.03
2018-05-11T18:26:53.814Z,14.47
2018-05-11T18:28:57.358Z,12.90
2018-05-11T18:31:00.925Z,13.50
2018-05-11T18:33:04.395Z,11.30
2018-05-11T18:35:08.658Z,12.10
2018-05-11T18:37:12.877Z,12.93
2018-05-11T18:39:16.424Z,11.80
2018-05-11T18:41:20.662Z,11.53
2018-05-11T18:43:24.130Z,10.43
2018-05-11T18:45:28.403Z,9.47
2018-05-11T18:47:31.866Z,10.00
2018-05-11T18:49:37.026Z,10.40
2018-05-11T18:51:40.465Z,9.70
2018-05-11T18:53:44.184Z,9.07
2018-05-11T18:55:48.317Z,10.07
2018-05-11T18:57:52.570Z,8.13
2018-05-11T18:59:56.068Z,9.47
2018-05-11T19:01:59.585Z,9.03
2018-05-11T19:04:03.072Z,8.50
2018-05-11T19:06:06.548Z,9.90
2018-05-11T19:08:10.778Z,9.40
2018-05-11T19:10:15.025Z,8.93
2018-05-11T19:12:18.518Z,8.60
2018-05-11T19:14:21.993Z,8.60
2018-05-11T19:16:25.445Z,10.17
2018-05-11T19:18:28.901Z,8.37
2018-05-11T19:20:33.560Z,9.33
2018-05-11T19:22:37.028Z,9.40
2018-05-11T19:24:40.554Z,9.03
2018-05-11T19:26:43.982Z,9.23
2018-05-11T19:28:47.440Z,8.63
2018-05-11T19:30:50.949Z,9.00
2018-05-11T19:32:54.409Z,9.07
2018-05-11T19:34:57.884Z,8.90
2018-05-11T19:37:01.342Z,8.60
2018-05-11T19:39:05.792Z,9.70
2018-05-11T19:41:10.011Z,9.87
2018-05-11T19:43:13.503Z,9.07
2018-05-11T19:45:17.053Z,10.10
2018-05-11T19:47:21.271Z,9.63
2018-05-11T19:49:24.795Z,9.40
2018-05-11T19:51:28.266Z,10.87
2018-05-11T19:53:31.751Z,10.13
2018-05-11T19:55:36.016Z,9.87
2018-05-11T19:57:39.502Z,10.43
2018-05-11T19:59:43.764Z,10.07
2018-05-11T20:01:47.250Z,9.83
2018-05-11T20:03:50.737Z,9.87
2018-05-11T20:05:54.284Z,11.50
2018-05-11T20:07:57.741Z,10.27
2018-05-11T20:10:02.029Z,10.40
2018-05-11T20:12:05.516Z,9.97
2018-05-11T20:14:09.080Z,11.03
2018-05-11T20:16:12.554Z,11.60
2018-05-11T20:18:16.834Z,10.27
2018-05-11T20:20:20.313Z,11.03
2018-05-11T20:22:23.800Z,11.07
2018-05-11T20:24:27.339Z,10.73
2018-05-11T20:26:30.794Z,10.63
2018-05-11T20:28:34.250Z,9.77
2018-05-11T20:30:38.560Z,10.70
2018-05-11T20:32:42.758Z,9.77
2018-05-11T20:34:46.329Z,9.67
2018-05-11T20:36:49.832Z,10.43
2018-05-11T20:38:54.090Z,9.27
2018-05-11T20:40:57.608Z,10.27
2018-05-11T20:43:02.065Z,9.50
2018-05-11T20:45:05.586Z,9.97
2018-05-11T20:47:09.815Z,9.80
2018-05-11T20:49:13.300Z,9.60
2018-05-11T20:51:17.417Z,10.63
2018-05-11T20:53:20.927Z,9.90
2018-05-11T20:55:24.564Z,9.60
2018-05-11T20:57:28.056Z,10.13
2018-05-11T20:59:31.532Z,10.20
2018-05-11T21:01:34.991Z,10.53
2018-05-11T21:03:38.432Z,11.20
2018-05-11T21:05:41.922Z,10.50
2018-05-11T21:07:45.377Z,10.13
2018-05-11T21:09:48.870Z,9.17
2018-05-11T21:11:52.393Z,11.10
2018-05-11T21:13:55.924Z,11.03
2018-05-11T21:15:59.408Z,10.17
2018-05-11T21:18:03.089Z,11.07
2018-05-11T21:20:07.956Z,10.60
2018-05-11T21:22:11.654Z,11.57
2018-05-11T21:24:16.833Z,10.70
2018-05-11T21:26:21.561Z,10.77
2018-05-11T21:28:25.968Z,10.93
2018-05-11T21:30:32.330Z,12.00
2018-05-11T21:32:36.101Z,11.53
2018-05-11T21:34:40.478Z,12.03
2018-05-11T21:36:43.978Z,11.17
2018-05-11T21:38:47.455Z,11.23
2018-05-11T21:40:51.082Z,11.53
2018-05-11T21:42:55.334Z,9.93
2018-05-11T21:44:58.872Z,10.47
2018-05-11T21:47:02.369Z,10.60
2018-05-11T21:49:05.860Z,11.03
2018-05-11T21:51:09.335Z,10.83
2018-05-11T21:53:12.809Z,10.80
2018-05-11T21:55:16.312Z,11.97
2018-05-11T21:57:19.831Z,12.43
2018-05-11T21:59:23.272Z,12.23
2018-05-11T22:01:27.529Z,12.90
2018-05-11T22:03:30.962Z,12.10
2018-05-11T22:05:35.212Z,13.20
2018-05-11T22:07:38.659Z,13.40
2018-05-11T22:09:42.134Z,15.30
2018-05-11T22:11:45.626Z,13.23
2018-05-11T22:13:49.057Z,12.83
2018-05-11T22:15:52.582Z,12.57
2018-05-11T22:17:56.044Z,12.00
2018-05-11T22:19:59.517Z,11.97
2018-05-11T22:22:02.987Z,11.87
2018-05-11T22:24:06.434Z,11.60
2018-05-11T22:26:10.660Z,11.90
2018-05-11T22:28:14.885Z,12.53
2018-05-11T22:30:18.362Z,12.80
2018-05-11T22:32:22.565Z,12.37
2018-05-11T22:34:26.027Z,13.17
2018-05-11T22:36:29.491Z,12.40
2018-05-11T22:38:32.920Z,11.63
2018-05-11T22:40:36.454Z,12.07
2018-05-11T22:42:40.663Z,11.77
2018-05-11T22:44:44.893Z,12.77
2018-05-11T22:46:48.366Z,11.87
2018-05-11T22:48:52.579Z,11.70
2018-05-11T22:50:56.807Z,12.53
2018-05-11T22:53:00.245Z,11.63
2018-05-11T22:55:03.745Z,12.20
2018-05-11T22:57:07.179Z,11.90
2018-05-11T22:59:10.648Z,12.10
2018-05-11T23:01:14.113Z,13.20
2018-05-11T23:03:17.585Z,12.73
2018-05-11T23:05:21.095Z,13.07
2018-05-11T23:07:24.524Z,12.93
2018-05-11T23:09:27.957Z,12.80
2018-05-11T23:11:31.420Z,11.70
2018-05-11T23:13:34.852Z,12.80
2018-05-11T23:15:38.431Z,13.33
2018-05-11T23:17:41.907Z,12.20
2018-05-11T23:19:46.118Z,13.63
2018-05-11T23:21:49.601Z,13.83
2018-05-11T23:23:53.037Z,14.90
2018-05-11T23:25:56.508Z,15.13
2018-05-11T23:28:00.713Z,13.40
2018-05-11T23:30:04.227Z,14.17
2018-05-11T23:32:07.734Z,15.27
2018-05-11T23:34:11.960Z,13.40
2018-05-11T23:36:15.508Z,14.37
2018-05-11T23:38:19.727Z,13.53
2018-05-11T23:40:23.214Z,12.33
2018-05-11T23:42:26.702Z,14.03
2018-05-11T23:44:30.142Z,13.77
2018-05-11T23:46:33.641Z,13.53
2018-05-11T23:48:37.099Z,13.40
2018-05-11T23:50:41.345Z,14.27
2018-05-11T23:52:44.794Z,13.00
2018-05-11T23:54:49.018Z,14.50
2018-05-11T23:56:53.266Z,14.00
2018-05-11T23:58:56.719Z,13.93
